Manchester, TN

9:10 AM CST on January 16, 2017 (GMT -0600)
Manchester TN | | Change Station

Elev 1037 ft 35.48 °N, 86.09 °W | Updated 14 minutes ago

Overcast
Overcast
56.1 °F
Feels Like 56.1 °F
N
1.0
Wind Variable Wind from SE
Gusts 3.0 mph

Today
High -- | Low -- °F
--% Chance of Precip.
Yesterday
High -- | Low -- °F
Precip. -- in
Pressure 30.27 in
Visibility 10.0 miles
Clouds Mostly Cloudy 7000 ft
Dew Point 54 °F
Humidity 91%
Rainfall 0.00 in
Snow Depth Not available.
6:52 AM 4:56 PM
Waning Gibbous, 80% visible
METAR KTHA 161455Z AUTO 00000KT 10SM BKN070 14/11 A3027 RMK
Pressure 30.27 in
Visibility 10.0 miles
Clouds Mostly Cloudy 7000 ft
Dew Point 54 °F
Humidity 91%
Rainfall 0.00 in
Snow Depth Not available.
6:52 AM 4:56 PM
Waning Gibbous, 80% visible
METAR KTHA 161455Z AUTO 00000KT 10SM BKN070 14/11 A3027 RMK

Get Your Daily Forecast Email!

Thanks for signing up!

Be on the lookout for a verification email in your inbox.

You'll start receiving the daily forecast at 8 AM.

×

10-Day Weather Forecast

Almanac

Astronomy

Jan. 16, 2017 Rise Set
Actual Time
Civil Twilight
Nautical Twilight
Astronomical Twilight
Moon
Length of Visible Light
Length of Day
Tomorrow will be .
, % of the Moon is Illuminated

Today's Extremes

State Highs State Lows

Community

WunderPhotos

Upload Photos

1,962,540 photos uploaded!

WunderBlog® & News

Nearby

Air Quality

  Air Quality AQ Index Pollutant
Not available.

Snow Depth

Station Depth Elevation

Earthquake Activity

City Distance Mag. Time & Date
Minimum magnitude displayed is 2.5.

Coastal Water Temperatures

Place Temperature

Stations

Nearby Weather Stations

Station Location Temp. Windchill Dew Point Humidity Wind Precip. Elev Updated Type
                   

Watches & Warnings

There are currently no watches in effect.